Time;durP1;ratioP1;P1;durP2;ratioP2;P2;SDS_P1;SDS_P2;PMS_P1;PMS_P2;Temp;Humidity;BMP_temperature;BMP_pressure;BME280_temperature;BME280_humidity;BME280_pressure;Samples;Min_cycle;Max_cycle;Signal;HPM_P1;HPM_P2
2022/12/28 00:00:32;;;;;;;;;;;23.10;33.90;;;;;;500256;238;2428;-42
2022/12/28 00:02:34;;;;;;;;;;;23.10;33.80;;;;;;500082;237;1960;-42
2022/12/28 00:04:35;;;;;;;;;;;23.10;33.80;;;;;;500114;237;1942;-42
2022/12/28 00:06:36;;;;;;;;;;;23.10;33.80;;;;;;500158;237;2141;-44
2022/12/28 00:08:38;;;;;;;;;;;23.20;33.80;;;;;;500121;237;2180;-43
2022/12/28 00:10:39;;;;;;;;;;;23.20;33.80;;;;;;500151;237;2243;-42
2022/12/28 00:12:40;;;;;;;;;;;23.20;33.70;;;;;;500270;237;1944;-43
2022/12/28 00:14:42;;;;;;;;;;;23.20;33.70;;;;;;500283;237;1911;-43
2022/12/28 00:16:43;;;;;;;;;;;23.20;33.70;;;;;;500184;237;2151;-41
2022/12/28 00:18:45;;;;;;;;;;;23.20;33.60;;;;;;500285;237;1931;-44
2022/12/28 00:20:46;;;;;;;;;;;23.20;33.60;;;;;;500329;237;1914;-43
2022/12/28 00:22:47;;;;;;;;;;;23.30;33.60;;;;;;500193;238;2138;-41
2022/12/28 00:24:49;;;;;;;;;;;23.30;33.60;;;;;;500354;237;2287;-44
2022/12/28 00:26:51;;;;;;;;;;;23.30;33.50;;;;;;500457;237;1855;-43
2022/12/28 00:28:52;;;;;;;;;;;23.30;33.50;;;;;;500268;237;2187;-43
2022/12/28 00:30:54;;;;;;;;;;;23.40;33.50;;;;;;500230;237;1900;-43
2022/12/28 00:32:55;;;;;;;;;;;23.40;33.50;;;;;;500295;237;1842;-44
2022/12/28 00:34:56;;;;;;;;;;;23.40;33.50;;;;;;500530;237;2280;-42
2022/12/28 00:36:58;;;;;;;;;;;23.40;33.50;;;;;;500284;237;3120;-40
2022/12/28 00:38:59;;;;;;;;;;;23.40;33.40;;;;;;500652;237;1988;-43
2022/12/28 00:41:01;;;;;;;;;;;23.40;33.40;;;;;;500221;237;2041;-41
2022/12/28 00:43:02;;;;;;;;;;;23.50;33.40;;;;;;500358;237;2098;-41
2022/12/28 00:45:04;;;;;;;;;;;23.40;33.40;;;;;;500284;237;1666;-44
2022/12/28 00:47:08;;;;;;;;;;;23.40;33.40;;;;;;500309;237;2156;-43
2022/12/28 00:49:10;;;;;;;;;;;23.30;33.60;;;;;;500197;237;2343;-40
2022/12/28 00:51:11;;;;;;;;;;;23.10;33.90;;;;;;500402;237;2080;-42
2022/12/28 00:53:12;;;;;;;;;;;22.90;34.10;;;;;;500214;237;1909;-43
2022/12/28 00:55:14;;;;;;;;;;;22.70;34.50;;;;;;500317;237;2045;-43
2022/12/28 00:57:15;;;;;;;;;;;22.50;34.80;;;;;;500136;237;2170;-43
2022/12/28 00:59:16;;;;;;;;;;;22.40;35.00;;;;;;500305;237;2065;-41
2022/12/28 01:01:18;;;;;;;;;;;22.30;35.20;;;;;;500078;237;2025;-43
2022/12/28 01:03:20;;;;;;;;;;;22.20;35.40;;;;;;500101;237;1655;-41
2022/12/28 01:05:21;;;;;;;;;;;22.10;35.50;;;;;;500005;237;1864;-44
2022/12/28 01:07:23;;;;;;;;;;;22.10;35.60;;;;;;500028;237;2188;-43
2022/12/28 01:09:24;;;;;;;;;;;22.10;35.60;;;;;;500053;237;2156;-43
2022/12/28 01:11:25;;;;;;;;;;;22.10;35.70;;;;;;500124;237;2142;-44
2022/12/28 01:13:27;;;;;;;;;;;22.00;35.70;;;;;;500084;237;2044;-44
2022/12/28 01:15:29;;;;;;;;;;;22.00;35.80;;;;;;500191;237;2244;-42
2022/12/28 01:17:30;;;;;;;;;;;22.00;35.80;;;;;;500063;237;1986;-44
2022/12/28 01:19:31;;;;;;;;;;;21.90;35.90;;;;;;500147;237;1888;-40
2022/12/28 01:21:33;;;;;;;;;;;21.90;36.00;;;;;;500088;237;2166;-43
2022/12/28 01:23:34;;;;;;;;;;;21.90;36.00;;;;;;500072;237;2105;-44
2022/12/28 01:25:36;;;;;;;;;;;21.80;36.00;;;;;;500025;237;2122;-44
2022/12/28 01:27:37;;;;;;;;;;;21.80;36.10;;;;;;499924;237;2660;-41
2022/12/28 01:29:38;;;;;;;;;;;21.70;36.20;;;;;;499797;237;2057;-44
2022/12/28 01:31:40;;;;;;;;;;;21.70;36.20;;;;;;499960;237;1818;-43
2022/12/28 01:33:41;;;;;;;;;;;21.70;36.20;;;;;;499923;237;1734;-44
2022/12/28 01:35:43;;;;;;;;;;;21.70;36.20;;;;;;499850;237;1835;-43
2022/12/28 01:37:44;;;;;;;;;;;21.70;36.20;;;;;;500052;237;2926;-43
2022/12/28 01:39:46;;;;;;;;;;;21.70;36.20;;;;;;500086;237;2589;-44
2022/12/28 01:41:47;;;;;;;;;;;21.60;36.30;;;;;;500160;237;1946;-43
2022/12/28 01:43:48;;;;;;;;;;;21.60;36.30;;;;;;500228;237;2851;-40
2022/12/28 01:45:50;;;;;;;;;;;21.60;36.30;;;;;;500232;237;2030;-43
2022/12/28 01:47:51;;;;;;;;;;;21.60;36.30;;;;;;500169;237;2200;-40
2022/12/28 01:49:53;;;;;;;;;;;21.60;36.40;;;;;;500201;237;2287;-43
2022/12/28 01:51:54;;;;;;;;;;;21.50;36.40;;;;;;500318;237;1829;-43
2022/12/28 01:53:58;;;;;;;;;;;21.50;36.40;;;;;;500306;237;1818;-43
2022/12/28 01:55:59;;;;;;;;;;;21.50;36.40;;;;;;500187;237;2449;-40
2022/12/28 01:58:01;;;;;;;;;;;21.50;36.40;;;;;;500269;237;1669;-43
2022/12/28 02:00:02;;;;;;;;;;;21.50;36.40;;;;;;500529;237;1567;-43
2022/12/28 02:02:04;;;;;;;;;;;21.50;36.40;;;;;;500154;237;1922;-40
2022/12/28 02:04:05;;;;;;;;;;;21.50;36.50;;;;;;500219;237;2207;-41
2022/12/28 02:06:06;;;;;;;;;;;21.50;36.50;;;;;;500127;237;2091;-43
2022/12/28 02:08:08;;;;;;;;;;;21.50;36.50;;;;;;500236;238;3134;-43
2022/12/28 02:10:09;;;;;;;;;;;21.50;36.50;;;;;;500360;237;2363;-43
2022/12/28 02:12:11;;;;;;;;;;;21.40;36.50;;;;;;500124;238;1740;-43
2022/12/28 02:14:12;;;;;;;;;;;21.50;36.50;;;;;;500369;237;1695;-43
2022/12/28 02:16:14;;;;;;;;;;;21.50;36.50;;;;;;500232;237;1706;-43
2022/12/28 02:18:15;;;;;;;;;;;21.40;36.50;;;;;;500229;237;1926;-43
2022/12/28 02:20:17;;;;;;;;;;;21.40;36.50;;;;;;500218;237;2023;-43
2022/12/28 02:22:19;;;;;;;;;;;21.50;36.50;;;;;;500148;237;2945;-44
2022/12/28 02:24:20;;;;;;;;;;;21.50;36.50;;;;;;499936;238;2173;-44
2022/12/28 02:26:21;;;;;;;;;;;21.40;36.50;;;;;;500066;237;2000;-43
2022/12/28 02:28:23;;;;;;;;;;;21.40;36.50;;;;;;499988;237;2137;-43
2022/12/28 02:30:24;;;;;;;;;;;21.40;36.50;;;;;;499995;237;2708;-42
2022/12/28 02:32:26;;;;;;;;;;;21.40;36.50;;;;;;500025;237;2189;-43
2022/12/28 02:34:28;;;;;;;;;;;21.40;36.50;;;;;;499978;237;2213;-43
2022/12/28 02:36:29;;;;;;;;;;;21.40;36.50;;;;;;500053;237;1981;-43
2022/12/28 02:38:31;;;;;;;;;;;21.40;36.50;;;;;;499935;237;1902;-43
2022/12/28 02:40:33;;;;;;;;;;;21.40;36.40;;;;;;500060;237;2726;-44
2022/12/28 02:42:35;;;;;;;;;;;21.40;36.50;;;;;;499935;237;2670;-43
2022/12/28 02:51:44;;;;;;;;;;;21.40;36.60;;;;;;482450;247;2141;-43
2022/12/28 02:53:46;;;;;;;;;;;21.40;36.50;;;;;;482387;247;1889;-43
2022/12/28 02:58:19;;;;;;;;;;;21.30;36.50;;;;;;461159;258;2088;-41
2022/12/28 03:00:21;;;;;;;;;;;21.30;36.60;;;;;;461079;258;2231;-43
2022/12/28 03:02:23;;;;;;;;;;;21.30;36.60;;;;;;461219;256;1981;-43
2022/12/28 03:04:24;;;;;;;;;;;21.40;36.60;;;;;;461197;255;1971;-43
2022/12/28 03:08:45;;;;;;;;;;;21.30;36.60;;;;;;461261;258;2197;-43
2022/12/28 03:10:47;;;;;;;;;;;21.30;36.60;;;;;;461272;258;2012;-43
2022/12/28 03:12:48;;;;;;;;;;;21.20;36.60;;;;;;461288;258;2290;-43
2022/12/28 03:14:49;;;;;;;;;;;21.30;36.70;;;;;;461164;258;2493;-42
2022/12/28 03:31:04;;;;;;;;;;;21.30;36.60;;;;;;462233;255;2844;-44
2022/12/28 03:33:06;;;;;;;;;;;21.30;36.70;;;;;;468314;254;1745;-43
2022/12/28 03:35:07;;;;;;;;;;;21.30;36.60;;;;;;477990;247;2534;-41
2022/12/28 03:37:09;;;;;;;;;;;21.30;36.60;;;;;;481592;247;2435;-43
2022/12/28 03:39:11;;;;;;;;;;;21.30;36.50;;;;;;483080;246;1957;-43
2022/12/28 03:41:12;;;;;;;;;;;21.30;36.60;;;;;;481473;247;2327;-44
2022/12/28 03:45:33;;;;;;;;;;;21.30;36.60;;;;;;481462;247;2945;-43
2022/12/28 03:47:35;;;;;;;;;;;21.30;36.60;;;;;;482976;247;2008;-43
2022/12/28 03:49:36;;;;;;;;;;;21.20;36.50;;;;;;481642;247;2197;-43
2022/12/28 03:51:38;;;;;;;;;;;21.30;36.60;;;;;;482933;247;1795;-43
2022/12/28 03:53:39;;;;;;;;;;;21.30;36.50;;;;;;481330;247;1866;-43
2022/12/28 03:55:42;;;;;;;;;;;21.30;36.50;;;;;;482851;246;2928;-40
2022/12/28 03:57:42;;;;;;;;;;;21.30;36.50;;;;;;481281;247;1980;-42
2022/12/28 03:59:43;;;;;;;;;;;21.30;36.50;;;;;;482869;247;1788;-40
2022/12/28 04:01:45;;;;;;;;;;;21.20;36.60;;;;;;481350;247;2179;-40
2022/12/28 04:03:47;;;;;;;;;;;21.30;36.70;;;;;;482839;246;2437;-40
2022/12/28 04:05:48;;;;;;;;;;;21.20;36.60;;;;;;481304;247;2178;-43
2022/12/28 04:07:50;;;;;;;;;;;21.30;36.60;;;;;;482790;247;1911;-43
2022/12/28 04:09:51;;;;;;;;;;;21.30;36.50;;;;;;481487;247;2189;-40
2022/12/28 04:11:52;;;;;;;;;;;21.20;36.50;;;;;;482837;247;2177;-43
2022/12/28 04:13:54;;;;;;;;;;;21.30;36.60;;;;;;481555;247;2606;-42
2022/12/28 04:15:56;;;;;;;;;;;21.20;36.50;;;;;;482966;246;1964;-43
2022/12/28 04:17:57;;;;;;;;;;;21.30;36.60;;;;;;481478;247;2109;-43
2022/12/28 04:19:59;;;;;;;;;;;21.20;36.60;;;;;;482966;247;1961;-43
2022/12/28 04:22:01;;;;;;;;;;;21.20;36.60;;;;;;481590;247;1828;-43
2022/12/28 04:24:02;;;;;;;;;;;21.20;36.70;;;;;;483094;246;1936;-43
2022/12/28 04:26:03;;;;;;;;;;;21.20;36.60;;;;;;481626;247;1958;-43
2022/12/28 04:28:05;;;;;;;;;;;21.20;36.60;;;;;;483163;246;1882;-41
2022/12/28 04:30:07;;;;;;;;;;;21.30;36.60;;;;;;481519;247;2200;-43
2022/12/28 04:32:08;;;;;;;;;;;21.20;36.50;;;;;;483062;246;2126;-40
2022/12/28 04:34:10;;;;;;;;;;;21.30;36.60;;;;;;481490;247;1714;-43
2022/12/28 04:36:12;;;;;;;;;;;21.20;36.60;;;;;;483076;246;2133;-43
2022/12/28 04:38:13;;;;;;;;;;;21.20;36.60;;;;;;481474;247;2104;-43
2022/12/28 04:40:15;;;;;;;;;;;21.20;36.50;;;;;;483002;246;1722;-43
2022/12/28 04:42:16;;;;;;;;;;;21.20;36.50;;;;;;481426;247;2600;-43
2022/12/28 04:44:18;;;;;;;;;;;21.20;36.60;;;;;;483035;246;1675;-41
2022/12/28 04:46:19;;;;;;;;;;;21.20;36.60;;;;;;481443;247;2178;-43
2022/12/28 04:48:20;;;;;;;;;;;21.20;36.70;;;;;;483095;246;2841;-43
2022/12/28 04:50:22;;;;;;;;;;;21.20;36.70;;;;;;481620;247;2360;-44
2022/12/28 04:52:23;;;;;;;;;;;21.20;36.70;;;;;;483095;246;2120;-43
2022/12/28 04:54:25;;;;;;;;;;;21.20;36.60;;;;;;481671;247;2166;-44
2022/12/28 04:56:26;;;;;;;;;;;21.20;36.70;;;;;;483082;246;1959;-44
2022/12/28 04:58:28;;;;;;;;;;;21.10;36.70;;;;;;481619;247;3147;-44
2022/12/28 05:00:29;;;;;;;;;;;21.10;36.70;;;;;;483025;247;2171;-43
2022/12/28 05:02:30;;;;;;;;;;;21.10;36.70;;;;;;481630;247;2191;-43
2022/12/28 05:04:32;;;;;;;;;;;21.20;36.70;;;;;;483080;247;1904;-43
2022/12/28 05:06:33;;;;;;;;;;;21.10;36.60;;;;;;481641;247;2436;-43
2022/12/28 05:08:35;;;;;;;;;;;21.10;36.60;;;;;;482909;247;2381;-43
2022/12/28 05:10:36;;;;;;;;;;;21.20;36.70;;;;;;481419;247;2210;-43
2022/12/28 05:12:38;;;;;;;;;;;21.20;36.60;;;;;;482976;247;1999;-43
2022/12/28 05:14:41;;;;;;;;;;;21.40;36.40;;;;;;481431;247;1582;-44
2022/12/28 05:16:41;;;;;;;;;;;21.60;36.00;;;;;;483046;246;2029;-43
2022/12/28 05:18:43;;;;;;;;;;;21.80;35.70;;;;;;481508;247;2302;-43
2022/12/28 05:20:44;;;;;;;;;;;22.00;35.40;;;;;;483115;246;2774;-44
2022/12/28 05:22:46;;;;;;;;;;;22.10;35.10;;;;;;481406;247;2159;-43
2022/12/28 05:24:47;;;;;;;;;;;22.20;34.90;;;;;;482872;247;2178;-43
2022/12/28 05:26:50;;;;;;;;;;;22.30;34.80;;;;;;481321;247;2589;-43
2022/12/28 05:28:52;;;;;;;;;;;22.40;34.70;;;;;;482846;246;2206;-42
2022/12/28 05:30:53;;;;;;;;;;;22.40;34.50;;;;;;481343;247;2365;-40
2022/12/28 05:32:54;;;;;;;;;;;22.50;34.40;;;;;;482853;246;1810;-43
2022/12/28 05:34:56;;;;;;;;;;;22.50;34.30;;;;;;481343;247;2083;-40
2022/12/28 05:36:58;;;;;;;;;;;22.60;34.30;;;;;;482757;247;2366;-40
2022/12/28 05:38:59;;;;;;;;;;;22.70;34.30;;;;;;481409;247;2628;-40
2022/12/28 05:41:01;;;;;;;;;;;22.70;34.10;;;;;;483053;246;1952;-41
2022/12/28 05:43:03;;;;;;;;;;;22.70;34.10;;;;;;481528;247;2208;-44
2022/12/28 05:45:04;;;;;;;;;;;22.70;34.00;;;;;;482975;247;1804;-41
2022/12/28 05:47:05;;;;;;;;;;;22.80;34.00;;;;;;481719;247;2157;-44
2022/12/28 05:49:07;;;;;;;;;;;22.80;33.90;;;;;;483054;247;2161;-43
2022/12/28 05:51:09;;;;;;;;;;;22.90;33.90;;;;;;481622;247;1881;-44
2022/12/28 05:53:10;;;;;;;;;;;22.90;33.80;;;;;;483140;246;1970;-43
2022/12/28 05:55:11;;;;;;;;;;;22.90;33.80;;;;;;481617;247;1762;-44
2022/12/28 05:57:13;;;;;;;;;;;23.00;33.80;;;;;;482414;247;1979;-43
2022/12/28 05:59:15;;;;;;;;;;;23.00;33.70;;;;;;481556;247;2242;-42
2022/12/28 06:01:16;;;;;;;;;;;23.00;33.60;;;;;;483105;247;2389;-44
2022/12/28 06:03:17;;;;;;;;;;;23.00;33.60;;;;;;481742;247;2199;-43
2022/12/28 06:05:18;;;;;;;;;;;23.10;33.60;;;;;;483127;247;2192;-41
2022/12/28 06:07:20;;;;;;;;;;;23.10;33.60;;;;;;481580;247;1931;-43
2022/12/28 06:09:22;;;;;;;;;;;23.10;33.50;;;;;;483087;246;2165;-41
2022/12/28 06:11:23;;;;;;;;;;;23.10;33.50;;;;;;481770;247;1975;-43
2022/12/28 06:13:24;;;;;;;;;;;23.20;33.50;;;;;;483151;246;2005;-40
2022/12/28 06:15:26;;;;;;;;;;;23.20;33.50;;;;;;481712;247;1889;-43
2022/12/28 06:17:31;;;;;;;;;;;23.20;33.50;;;;;;483167;246;2056;-44
2022/12/28 06:19:32;;;;;;;;;;;23.20;33.40;;;;;;481650;247;2176;-41
2022/12/28 06:21:34;;;;;;;;;;;23.20;33.40;;;;;;483121;246;1716;-41
2022/12/28 06:23:38;;;;;;;;;;;23.20;33.30;;;;;;481502;247;1981;-44
2022/12/28 06:25:39;;;;;;;;;;;23.30;33.40;;;;;;483082;246;1981;-42
2022/12/28 06:27:41;;;;;;;;;;;23.30;33.40;;;;;;481689;247;1966;-42
2022/12/28 06:29:42;;;;;;;;;;;23.30;33.40;;;;;;483139;246;2152;-44
2022/12/28 06:31:43;;;;;;;;;;;23.30;33.30;;;;;;481568;247;2860;-43
2022/12/28 06:33:45;;;;;;;;;;;23.30;33.30;;;;;;483074;246;2052;-40
2022/12/28 06:35:46;;;;;;;;;;;23.30;33.30;;;;;;481552;247;3458;-44
2022/12/28 06:37:48;;;;;;;;;;;23.30;33.20;;;;;;482981;247;2126;-41
2022/12/28 06:39:49;;;;;;;;;;;23.40;33.20;;;;;;481512;247;1973;-44
2022/12/28 06:41:50;;;;;;;;;;;23.40;33.30;;;;;;482931;247;1572;-42
2022/12/28 06:43:52;;;;;;;;;;;23.40;33.20;;;;;;481660;247;2680;-42
2022/12/28 06:45:53;;;;;;;;;;;23.40;33.20;;;;;;482997;247;2058;-41
2022/12/28 06:47:55;;;;;;;;;;;23.40;33.20;;;;;;481565;247;2336;-40
2022/12/28 06:49:56;;;;;;;;;;;23.40;33.10;;;;;;483233;246;2184;-43
2022/12/28 06:51:58;;;;;;;;;;;23.50;33.20;;;;;;481648;247;2253;-43
2022/12/28 06:54:00;;;;;;;;;;;23.50;33.10;;;;;;483139;246;2702;-41
2022/12/28 06:56:01;;;;;;;;;;;23.50;33.20;;;;;;481512;247;2177;-43
2022/12/28 06:58:02;;;;;;;;;;;23.50;33.20;;;;;;483068;247;2550;-43
2022/12/28 07:00:03;;;;;;;;;;;23.50;33.20;;;;;;481751;247;2475;-43
2022/12/28 07:02:05;;;;;;;;;;;23.50;33.10;;;;;;483061;247;2325;-44
2022/12/28 07:04:06;;;;;;;;;;;23.50;33.10;;;;;;481572;247;2275;-41
2022/12/28 07:06:07;;;;;;;;;;;23.50;33.20;;;;;;483032;246;2058;-43
2022/12/28 07:08:09;;;;;;;;;;;23.40;33.20;;;;;;481567;247;3820;-40
2022/12/28 07:10:10;;;;;;;;;;;23.20;33.50;;;;;;482827;247;2184;-44
2022/12/28 07:12:13;;;;;;;;;;;23.00;33.80;;;;;;481486;247;2137;-42
2022/12/28 07:14:18;;;;;;;;;;;22.80;34.20;;;;;;482846;247;2538;-43
2022/12/28 07:16:19;;;;;;;;;;;22.70;34.40;;;;;;481237;247;1753;-41
2022/12/28 07:18:21;;;;;;;;;;;22.50;34.50;;;;;;482809;246;2279;-44
2022/12/28 07:20:22;;;;;;;;;;;22.40;34.80;;;;;;481288;247;2192;-44
2022/12/28 07:22:24;;;;;;;;;;;22.40;34.90;;;;;;482848;246;1946;-42
2022/12/28 07:24:25;;;;;;;;;;;22.30;34.90;;;;;;481427;247;2285;-44
2022/12/28 07:26:27;;;;;;;;;;;22.30;35.00;;;;;;482926;246;1928;-40
2022/12/28 07:28:29;;;;;;;;;;;22.20;35.10;;;;;;481488;247;1869;-43
2022/12/28 07:30:30;;;;;;;;;;;22.20;35.20;;;;;;482920;247;2184;-44
2022/12/28 07:32:31;;;;;;;;;;;22.10;35.10;;;;;;481532;247;2514;-40
2022/12/28 07:34:33;;;;;;;;;;;22.10;35.20;;;;;;482934;247;2696;-41
2022/12/28 07:36:34;;;;;;;;;;;22.00;35.30;;;;;;481636;247;1993;-43
2022/12/28 07:38:35;;;;;;;;;;;22.00;35.30;;;;;;483091;246;1835;-43
2022/12/28 07:40:37;;;;;;;;;;;22.00;35.40;;;;;;481682;247;1951;-43
2022/12/28 07:42:38;;;;;;;;;;;22.00;35.40;;;;;;483088;246;2108;-43
2022/12/28 07:44:41;;;;;;;;;;;21.90;35.50;;;;;;481468;247;2021;-43
2022/12/28 07:46:43;;;;;;;;;;;22.00;35.50;;;;;;483027;247;1912;-40
2022/12/28 07:48:45;;;;;;;;;;;21.90;35.50;;;;;;481540;247;2121;-43
2022/12/28 07:50:47;;;;;;;;;;;21.90;35.50;;;;;;482903;246;2940;-40
2022/12/28 07:52:49;;;;;;;;;;;21.90;35.60;;;;;;481445;247;1938;-43
2022/12/28 07:54:51;;;;;;;;;;;21.90;35.60;;;;;;483172;246;2015;-40
2022/12/28 07:56:52;;;;;;;;;;;21.90;35.60;;;;;;481559;247;2078;-43
2022/12/28 07:58:53;;;;;;;;;;;21.80;35.50;;;;;;483155;246;1684;-40
2022/12/28 08:00:55;;;;;;;;;;;21.80;35.60;;;;;;481571;247;2321;-40
2022/12/28 08:02:56;;;;;;;;;;;21.80;35.60;;;;;;483129;246;2007;-43
2022/12/28 08:04:57;;;;;;;;;;;21.80;35.60;;;;;;481594;247;2246;-43
2022/12/28 08:06:59;;;;;;;;;;;21.80;35.60;;;;;;483103;246;1994;-43
2022/12/28 08:09:02;;;;;;;;;;;21.80;35.60;;;;;;481554;247;2435;-43
2022/12/28 08:11:04;;;;;;;;;;;21.80;35.50;;;;;;483106;247;2188;-42
2022/12/28 08:13:07;;;;;;;;;;;21.70;35.60;;;;;;481852;247;2066;-42
2022/12/28 08:15:08;;;;;;;;;;;21.80;35.70;;;;;;483079;246;1756;-41
2022/12/28 08:17:10;;;;;;;;;;;21.80;35.70;;;;;;481499;247;2521;-43
2022/12/28 08:19:12;;;;;;;;;;;21.80;35.60;;;;;;483233;246;2491;-42
2022/12/28 08:21:13;;;;;;;;;;;21.70;35.60;;;;;;481484;247;2487;-40
2022/12/28 08:23:14;;;;;;;;;;;21.70;35.60;;;;;;482970;246;1981;-41
2022/12/28 08:25:16;;;;;;;;;;;21.70;35.70;;;;;;481752;247;2240;-42
2022/12/28 08:27:17;;;;;;;;;;;21.70;35.70;;;;;;483021;247;2421;-42
2022/12/28 08:29:19;;;;;;;;;;;21.60;35.70;;;;;;481640;247;2075;-43
2022/12/28 08:31:20;;;;;;;;;;;21.70;35.80;;;;;;482959;246;2277;-43
2022/12/28 08:33:21;;;;;;;;;;;21.60;35.70;;;;;;481625;247;2078;-43
2022/12/28 08:35:23;;;;;;;;;;;21.60;35.80;;;;;;483192;246;2116;-43
2022/12/28 08:37:24;;;;;;;;;;;21.60;35.80;;;;;;481580;247;1885;-40
2022/12/28 08:39:26;;;;;;;;;;;21.60;35.80;;;;;;483177;246;1902;-43
2022/12/28 08:41:27;;;;;;;;;;;21.60;35.80;;;;;;481454;247;2607;-41
2022/12/28 08:43:28;;;;;;;;;;;21.60;35.80;;;;;;482960;246;2549;-41
2022/12/28 08:45:30;;;;;;;;;;;21.70;35.60;;;;;;481571;247;2241;-41
2022/12/28 08:47:31;;;;;;;;;;;22.00;35.30;;;;;;482910;246;2017;-40
2022/12/28 08:49:32;;;;;;;;;;;22.10;34.90;;;;;;481352;247;2625;-41
2022/12/28 08:51:34;;;;;;;;;;;22.30;34.60;;;;;;482771;246;2195;-42
2022/12/28 08:53:35;;;;;;;;;;;22.50;34.40;;;;;;481543;247;1854;-43
2022/12/28 08:55:37;;;;;;;;;;;22.40;34.20;;;;;;482987;246;2129;-42
2022/12/28 08:57:38;;;;;;;;;;;22.40;34.30;;;;;;481318;247;2198;-43
2022/12/28 08:59:40;;;;;;;;;;;22.30;34.60;;;;;;482854;247;1781;-41
2022/12/28 09:01:41;;;;;;;;;;;22.20;34.80;;;;;;481175;247;2068;-43
2022/12/28 09:03:43;;;;;;;;;;;22.10;34.90;;;;;;482930;246;2625;-43
2022/12/28 09:05:44;;;;;;;;;;;22.00;35.10;;;;;;481307;247;2159;-44
2022/12/28 09:07:46;;;;;;;;;;;21.90;35.20;;;;;;482816;246;1985;-41
2022/12/28 09:09:48;;;;;;;;;;;21.80;35.30;;;;;;481264;247;3055;-42
2022/12/28 09:11:49;;;;;;;;;;;21.80;35.30;;;;;;482646;246;2481;-40
2022/12/28 09:13:51;;;;;;;;;;;21.80;35.30;;;;;;481274;247;3014;-43
2022/12/28 09:15:53;;;;;;;;;;;21.80;35.40;;;;;;482694;246;2882;-42
2022/12/28 09:17:55;;;;;;;;;;;21.80;35.50;;;;;;481232;247;1719;-40
2022/12/28 09:19:56;;;;;;;;;;;21.80;35.50;;;;;;482815;246;1934;-42
2022/12/28 09:21:58;;;;;;;;;;;21.70;35.40;;;;;;481225;247;2110;-43
2022/12/28 09:24:00;;;;;;;;;;;21.80;35.50;;;;;;482760;247;2262;-43
2022/12/28 09:26:01;;;;;;;;;;;21.70;35.40;;;;;;481260;247;1954;-40
2022/12/28 09:28:05;;;;;;;;;;;21.70;35.40;;;;;;482891;246;2791;-43
2022/12/28 09:30:08;;;;;;;;;;;21.80;35.50;;;;;;481428;247;2201;-40
2022/12/28 09:32:09;;;;;;;;;;;21.70;35.40;;;;;;482758;247;2214;-42
2022/12/28 09:34:11;;;;;;;;;;;21.70;35.50;;;;;;481525;247;2216;-40
2022/12/28 09:36:12;;;;;;;;;;;21.70;35.50;;;;;;482847;246;2214;-42
2022/12/28 09:38:13;;;;;;;;;;;21.70;35.50;;;;;;481659;247;2530;-41
2022/12/28 09:40:15;;;;;;;;;;;21.70;35.50;;;;;;483124;246;1808;-41
2022/12/28 09:42:16;;;;;;;;;;;21.70;35.50;;;;;;481576;247;1713;-44
2022/12/28 09:44:18;;;;;;;;;;;21.70;35.50;;;;;;483097;246;3754;-39
2022/12/28 09:46:19;;;;;;;;;;;21.70;35.50;;;;;;481557;247;1941;-43
2022/12/28 09:48:21;;;;;;;;;;;21.70;35.50;;;;;;482945;247;2768;-42
2022/12/28 09:50:24;;;;;;;;;;;21.70;35.50;;;;;;481487;247;2197;-42
2022/12/28 09:52:24;;;;;;;;;;;21.70;35.50;;;;;;483000;247;2493;-43
2022/12/28 09:54:26;;;;;;;;;;;21.70;35.50;;;;;;481528;247;2109;-43
2022/12/28 09:56:28;;;;;;;;;;;21.70;35.50;;;;;;482955;247;2599;-44
2022/12/28 09:58:29;;;;;;;;;;;21.70;35.50;;;;;;481392;247;2293;-43
2022/12/28 10:00:31;;;;;;;;;;;21.70;35.50;;;;;;482709;247;2163;-43
2022/12/28 10:02:32;;;;;;;;;;;21.70;35.40;;;;;;481354;247;2199;-40
2022/12/28 10:04:33;;;;;;;;;;;21.70;35.50;;;;;;482828;247;2050;-43
2022/12/28 10:06:35;;;;;;;;;;;21.70;35.50;;;;;;481243;247;2464;-44
2022/12/28 10:08:36;;;;;;;;;;;21.60;35.50;;;;;;482856;246;2361;-43
2022/12/28 10:10:37;;;;;;;;;;;21.70;35.50;;;;;;481252;247;2154;-40
2022/12/28 10:12:42;;;;;;;;;;;21.70;35.50;;;;;;482832;246;1849;-42
2022/12/28 10:14:42;;;;;;;;;;;21.70;35.50;;;;;;481186;247;2461;-43
2022/12/28 10:16:43;;;;;;;;;;;21.70;35.50;;;;;;482143;247;1987;-40
2022/12/28 10:18:45;;;;;;;;;;;21.70;35.50;;;;;;481479;247;2271;-43
2022/12/28 10:20:47;;;;;;;;;;;21.70;35.50;;;;;;482781;247;1893;-43
2022/12/28 10:22:49;;;;;;;;;;;21.60;35.40;;;;;;481267;247;1984;-43
2022/12/28 10:24:50;;;;;;;;;;;21.60;35.50;;;;;;482906;246;2273;-43
2022/12/28 10:26:51;;;;;;;;;;;21.70;35.50;;;;;;481372;247;2320;-43
2022/12/28 10:28:53;;;;;;;;;;;21.70;35.40;;;;;;482929;246;1706;-41
2022/12/28 10:30:55;;;;;;;;;;;21.70;35.40;;;;;;481393;247;2184;-41
2022/12/28 10:32:56;;;;;;;;;;;21.70;35.40;;;;;;482786;246;2149;-43
2022/12/28 10:34:58;;;;;;;;;;;21.70;35.40;;;;;;481476;247;2081;-44
2022/12/28 10:37:00;;;;;;;;;;;21.60;35.40;;;;;;482829;247;2391;-44
2022/12/28 10:39:02;;;;;;;;;;;21.60;35.50;;;;;;481518;247;2254;-42
2022/12/28 10:41:03;;;;;;;;;;;21.60;35.50;;;;;;482900;246;2551;-43
2022/12/28 10:43:05;;;;;;;;;;;21.60;35.40;;;;;;481307;247;2461;-42
2022/12/28 10:45:06;;;;;;;;;;;21.60;35.40;;;;;;482918;246;2797;-44
2022/12/28 10:47:08;;;;;;;;;;;21.60;35.40;;;;;;481406;247;2544;-42
2022/12/28 10:49:10;;;;;;;;;;;21.60;35.40;;;;;;482791;247;2005;-43
2022/12/28 10:51:15;;;;;;;;;;;21.60;35.40;;;;;;481446;247;2185;-40
2022/12/28 10:53:16;;;;;;;;;;;21.60;35.40;;;;;;482796;247;2868;-43
2022/12/28 10:55:17;;;;;;;;;;;21.60;35.40;;;;;;481292;247;3107;-42
2022/12/28 10:57:19;;;;;;;;;;;21.60;35.40;;;;;;482911;246;2930;-41
2022/12/28 10:59:21;;;;;;;;;;;21.60;35.40;;;;;;481405;247;2736;-40
2022/12/28 11:01:23;;;;;;;;;;;21.60;35.40;;;;;;482739;247;1964;-40
2022/12/28 11:03:25;;;;;;;;;;;21.60;35.40;;;;;;481401;247;3116;-43
2022/12/28 11:05:27;;;;;;;;;;;21.60;35.40;;;;;;482716;247;2512;-44
2022/12/28 11:07:28;;;;;;;;;;;21.60;35.40;;;;;;481136;247;3653;-43
2022/12/28 11:09:33;;;;;;;;;;;21.50;35.40;;;;;;482956;246;1695;-43
2022/12/28 11:11:34;;;;;;;;;;;21.60;35.40;;;;;;481326;247;2173;-40
2022/12/28 11:13:36;;;;;;;;;;;21.60;35.30;;;;;;482993;246;2479;-40
2022/12/28 11:15:38;;;;;;;;;;;21.60;35.30;;;;;;481465;247;1931;-43
2022/12/28 11:17:40;;;;;;;;;;;21.60;35.30;;;;;;482942;247;1708;-41
2022/12/28 11:19:41;;;;;;;;;;;21.50;35.30;;;;;;481603;247;2020;-43
2022/12/28 11:21:45;;;;;;;;;;;21.60;35.40;;;;;;483135;246;1742;-43
2022/12/28 11:23:50;;;;;;;;;;;21.60;35.40;;;;;;481761;247;1897;-43
2022/12/28 11:25:52;;;;;;;;;;;21.50;35.30;;;;;;483085;246;2309;-40
2022/12/28 11:27:53;;;;;;;;;;;21.60;35.40;;;;;;481560;247;2307;-43
2022/12/28 11:29:54;;;;;;;;;;;21.60;35.40;;;;;;483057;247;2340;-43
2022/12/28 11:31:57;;;;;;;;;;;21.60;35.30;;;;;;481602;247;2173;-43
2022/12/28 11:33:58;;;;;;;;;;;21.60;35.40;;;;;;483098;247;1995;-41
2022/12/28 11:35:59;;;;;;;;;;;21.50;35.30;;;;;;481476;247;1735;-43
2022/12/28 11:38:01;;;;;;;;;;;21.50;35.30;;;;;;482950;247;1904;-40
2022/12/28 11:40:02;;;;;;;;;;;21.60;35.40;;;;;;481463;247;2517;-43
2022/12/28 11:42:03;;;;;;;;;;;21.60;35.30;;;;;;482623;246;1902;-43
2022/12/28 11:44:05;;;;;;;;;;;21.60;35.30;;;;;;481485;247;3388;-40
2022/12/28 11:46:06;;;;;;;;;;;21.60;35.30;;;;;;482904;246;2233;-43
2022/12/28 11:48:07;;;;;;;;;;;21.60;35.30;;;;;;481307;247;2018;-43
2022/12/28 11:50:09;;;;;;;;;;;21.60;35.30;;;;;;482790;247;2818;-43
2022/12/28 11:52:11;;;;;;;;;;;21.60;35.30;;;;;;481444;247;2182;-41
2022/12/28 11:54:13;;;;;;;;;;;21.50;35.30;;;;;;482883;246;3015;-43
2022/12/28 11:56:14;;;;;;;;;;;21.60;35.30;;;;;;481478;247;2154;-43
2022/12/28 11:58:18;;;;;;;;;;;21.60;35.30;;;;;;482998;247;1970;-42
2022/12/28 12:00:20;;;;;;;;;;;21.60;35.30;;;;;;481556;247;1997;-43
2022/12/28 12:02:22;;;;;;;;;;;21.60;35.20;;;;;;483023;246;2524;-43
2022/12/28 12:04:25;;;;;;;;;;;21.60;35.30;;;;;;473388;251;3092;-40
2022/12/28 12:06:26;;;;;;;;;;;21.60;35.20;;;;;;474727;251;1885;-40
2022/12/28 12:08:28;;;;;;;;;;;21.50;35.20;;;;;;473483;251;1815;-39
2022/12/28 12:10:29;;;;;;;;;;;21.60;35.30;;;;;;474928;251;2235;-43
2022/12/28 12:12:31;;;;;;;;;;;21.50;35.20;;;;;;473184;252;2457;-43
2022/12/28 12:14:33;;;;;;;;;;;21.60;35.30;;;;;;474795;251;2474;-43
2022/12/28 12:16:34;;;;;;;;;;;21.60;35.30;;;;;;473277;251;2192;-40
2022/12/28 12:18:36;;;;;;;;;;;21.60;35.20;;;;;;474746;251;2198;-43
2022/12/28 12:20:37;;;;;;;;;;;21.60;35.20;;;;;;473487;251;2171;-39
2022/12/28 12:22:38;;;;;;;;;;;21.70;35.10;;;;;;474586;251;2472;-42
2022/12/28 12:24:40;;;;;;;;;;;21.70;35.10;;;;;;473282;252;2018;-41
2022/12/28 12:26:42;;;;;;;;;;;21.70;35.10;;;;;;474562;251;2215;-40